sensor_id;sensor_type;location;lat;lon;timestamp;P1;durP1;ratioP1;P2;durP2;ratioP2
51814;SDS011;37874;53.158;6.766;2022-11-20T00:01:21;9.43;;;7.70;;
51814;SDS011;37874;53.158;6.766;2022-11-20T00:03:51;9.52;;;7.57;;
51814;SDS011;37874;53.158;6.766;2022-11-20T00:06:18;9.63;;;7.28;;
51814;SDS011;37874;53.158;6.766;2022-11-20T00:08:44;13.82;;;8.10;;
51814;SDS011;37874;53.158;6.766;2022-11-20T00:11:12;9.82;;;7.65;;
51814;SDS011;37874;53.158;6.766;2022-11-20T00:13:39;9.20;;;7.05;;
51814;SDS011;37874;53.158;6.766;2022-11-20T00:16:06;10.07;;;7.65;;
51814;SDS011;37874;53.158;6.766;2022-11-20T00:18:33;11.35;;;7.70;;
51814;SDS011;37874;53.158;6.766;2022-11-20T00:21:02;10.13;;;7.30;;
51814;SDS011;37874;53.158;6.766;2022-11-20T00:23:32;10.38;;;7.75;;
51814;SDS011;37874;53.158;6.766;2022-11-20T00:26:02;9.30;;;7.30;;
51814;SDS011;37874;53.158;6.766;2022-11-20T00:28:32;9.18;;;7.18;;
51814;SDS011;37874;53.158;6.766;2022-11-20T00:31:03;12.35;;;7.63;;
51814;SDS011;37874;53.158;6.766;2022-11-20T00:33:36;9.30;;;6.82;;
51814;SDS011;37874;53.158;6.766;2022-11-20T00:36:06;8.98;;;6.97;;
51814;SDS011;37874;53.158;6.766;2022-11-20T00:38:33;9.82;;;6.85;;
51814;SDS011;37874;53.158;6.766;2022-11-20T00:41:00;9.45;;;6.93;;
51814;SDS011;37874;53.158;6.766;2022-11-20T00:43:27;9.38;;;6.80;;
51814;SDS011;37874;53.158;6.766;2022-11-20T00:46:05;8.85;;;6.78;;
51814;SDS011;37874;53.158;6.766;2022-11-20T00:48:32;8.40;;;6.50;;
51814;SDS011;37874;53.158;6.766;2022-11-20T00:50:58;8.02;;;6.50;;
51814;SDS011;37874;53.158;6.766;2022-11-20T00:53:24;8.95;;;7.10;;
51814;SDS011;37874;53.158;6.766;2022-11-20T00:55:58;8.43;;;6.15;;
51814;SDS011;37874;53.158;6.766;2022-11-20T00:58:35;8.38;;;6.50;;
51814;SDS011;37874;53.158;6.766;2022-11-20T01:03:32;7.97;;;6.38;;
51814;SDS011;37874;53.158;6.766;2022-11-20T01:05:59;7.50;;;5.78;;
51814;SDS011;37874;53.158;6.766;2022-11-20T01:08:28;8.27;;;5.80;;
51814;SDS011;37874;53.158;6.766;2022-11-20T01:10:59;8.13;;;6.20;;
51814;SDS011;37874;53.158;6.766;2022-11-20T01:13:30;7.40;;;5.50;;
51814;SDS011;37874;53.158;6.766;2022-11-20T01:16:03;8.32;;;5.82;;
51814;SDS011;37874;53.158;6.766;2022-11-20T01:18:29;7.47;;;5.88;;
51814;SDS011;37874;53.158;6.766;2022-11-20T01:21:01;7.32;;;5.55;;
51814;SDS011;37874;53.158;6.766;2022-11-20T01:23:35;8.52;;;5.38;;
51814;SDS011;37874;53.158;6.766;2022-11-20T01:26:03;7.45;;;5.82;;
51814;SDS011;37874;53.158;6.766;2022-11-20T01:28:30;8.10;;;5.20;;
51814;SDS011;37874;53.158;6.766;2022-11-20T01:30:56;7.80;;;5.53;;
51814;SDS011;37874;53.158;6.766;2022-11-20T01:33:22;8.63;;;5.40;;
51814;SDS011;37874;53.158;6.766;2022-11-20T01:35:48;6.82;;;4.82;;
51814;SDS011;37874;53.158;6.766;2022-11-20T01:38:14;6.50;;;4.88;;
51814;SDS011;37874;53.158;6.766;2022-11-20T01:40:41;7.82;;;5.30;;
51814;SDS011;37874;53.158;6.766;2022-11-20T01:43:12;7.68;;;5.07;;
51814;SDS011;37874;53.158;6.766;2022-11-20T01:45:52;6.15;;;5.05;;
51814;SDS011;37874;53.158;6.766;2022-11-20T01:48:21;7.30;;;5.15;;
51814;SDS011;37874;53.158;6.766;2022-11-20T01:50:48;6.82;;;5.15;;
51814;SDS011;37874;53.158;6.766;2022-11-20T01:53:16;6.95;;;5.10;;
51814;SDS011;37874;53.158;6.766;2022-11-20T01:55:50;6.40;;;4.72;;
51814;SDS011;37874;53.158;6.766;2022-11-20T01:58:19;6.38;;;4.70;;
51814;SDS011;37874;53.158;6.766;2022-11-20T02:00:50;6.05;;;4.53;;
51814;SDS011;37874;53.158;6.766;2022-11-20T02:03:16;5.47;;;4.18;;
51814;SDS011;37874;53.158;6.766;2022-11-20T02:08:47;6.07;;;4.50;;
51814;SDS011;37874;53.158;6.766;2022-11-20T02:11:12;6.55;;;4.70;;
51814;SDS011;37874;53.158;6.766;2022-11-20T02:13:38;5.72;;;4.70;;
51814;SDS011;37874;53.158;6.766;2022-11-20T02:18:42;6.20;;;4.65;;
51814;SDS011;37874;53.158;6.766;2022-11-20T02:23:56;6.28;;;4.47;;
51814;SDS011;37874;53.158;6.766;2022-11-20T02:26:31;7.03;;;4.70;;
51814;SDS011;37874;53.158;6.766;2022-11-20T02:29:02;7.00;;;4.50;;
51814;SDS011;37874;53.158;6.766;2022-11-20T02:31:28;5.78;;;4.65;;
51814;SDS011;37874;53.158;6.766;2022-11-20T02:33:57;6.45;;;4.85;;
51814;SDS011;37874;53.158;6.766;2022-11-20T02:36:23;6.25;;;4.78;;
51814;SDS011;37874;53.158;6.766;2022-11-20T02:38:52;6.10;;;4.60;;
51814;SDS011;37874;53.158;6.766;2022-11-20T02:41:18;5.68;;;4.03;;
51814;SDS011;37874;53.158;6.766;2022-11-20T02:43:44;5.72;;;4.75;;
51814;SDS011;37874;53.158;6.766;2022-11-20T02:46:09;7.35;;;4.80;;
51814;SDS011;37874;53.158;6.766;2022-11-20T02:48:35;5.47;;;4.40;;
51814;SDS011;37874;53.158;6.766;2022-11-20T02:51:00;5.70;;;4.25;;
51814;SDS011;37874;53.158;6.766;2022-11-20T02:53:26;5.63;;;3.90;;
51814;SDS011;37874;53.158;6.766;2022-11-20T02:55:52;5.65;;;4.38;;
51814;SDS011;37874;53.158;6.766;2022-11-20T02:58:17;5.72;;;4.32;;
51814;SDS011;37874;53.158;6.766;2022-11-20T03:00:43;5.53;;;4.55;;
51814;SDS011;37874;53.158;6.766;2022-11-20T03:03:11;5.82;;;4.30;;
51814;SDS011;37874;53.158;6.766;2022-11-20T03:05:37;5.53;;;4.18;;
51814;SDS011;37874;53.158;6.766;2022-11-20T03:08:03;7.78;;;4.82;;
51814;SDS011;37874;53.158;6.766;2022-11-20T03:10:28;5.90;;;3.80;;
51814;SDS011;37874;53.158;6.766;2022-11-20T03:12:54;7.13;;;4.65;;
51814;SDS011;37874;53.158;6.766;2022-11-20T03:15:20;6.00;;;4.40;;
51814;SDS011;37874;53.158;6.766;2022-11-20T03:17:47;6.30;;;4.10;;
51814;SDS011;37874;53.158;6.766;2022-11-20T03:20:13;4.70;;;3.35;;
51814;SDS011;37874;53.158;6.766;2022-11-20T03:22:38;5.25;;;3.72;;
51814;SDS011;37874;53.158;6.766;2022-11-20T03:25:04;5.95;;;4.65;;
51814;SDS011;37874;53.158;6.766;2022-11-20T03:27:34;5.47;;;3.85;;
51814;SDS011;37874;53.158;6.766;2022-11-20T03:30:00;5.97;;;4.28;;
51814;SDS011;37874;53.158;6.766;2022-11-20T03:32:25;6.35;;;4.40;;
51814;SDS011;37874;53.158;6.766;2022-11-20T03:34:51;5.03;;;3.97;;
51814;SDS011;37874;53.158;6.766;2022-11-20T03:37:17;5.07;;;3.83;;
51814;SDS011;37874;53.158;6.766;2022-11-20T03:39:42;5.32;;;3.90;;
51814;SDS011;37874;53.158;6.766;2022-11-20T03:42:08;6.82;;;4.53;;
51814;SDS011;37874;53.158;6.766;2022-11-20T03:44:54;5.63;;;3.95;;
51814;SDS011;37874;53.158;6.766;2022-11-20T03:47:20;5.18;;;3.50;;
51814;SDS011;37874;53.158;6.766;2022-11-20T03:49:45;5.43;;;3.25;;
51814;SDS011;37874;53.158;6.766;2022-11-20T03:52:11;5.40;;;3.80;;
51814;SDS011;37874;53.158;6.766;2022-11-20T03:54:37;5.93;;;4.00;;
51814;SDS011;37874;53.158;6.766;2022-11-20T03:57:02;4.72;;;3.60;;
51814;SDS011;37874;53.158;6.766;2022-11-20T03:59:28;4.72;;;3.70;;
51814;SDS011;37874;53.158;6.766;2022-11-20T04:01:53;4.70;;;3.80;;
51814;SDS011;37874;53.158;6.766;2022-11-20T04:04:19;5.47;;;4.35;;
51814;SDS011;37874;53.158;6.766;2022-11-20T04:06:45;5.25;;;4.03;;
51814;SDS011;37874;53.158;6.766;2022-11-20T04:09:10;5.10;;;3.53;;
51814;SDS011;37874;53.158;6.766;2022-11-20T04:11:37;6.13;;;3.80;;
51814;SDS011;37874;53.158;6.766;2022-11-20T04:14:05;5.55;;;3.78;;
51814;SDS011;37874;53.158;6.766;2022-11-20T04:16:36;5.05;;;3.80;;
51814;SDS011;37874;53.158;6.766;2022-11-20T04:19:02;4.47;;;3.28;;
51814;SDS011;37874;53.158;6.766;2022-11-20T04:21:29;6.25;;;3.63;;
51814;SDS011;37874;53.158;6.766;2022-11-20T04:23:55;5.38;;;3.58;;
51814;SDS011;37874;53.158;6.766;2022-11-20T04:26:22;5.30;;;3.63;;
51814;SDS011;37874;53.158;6.766;2022-11-20T04:28:49;6.18;;;3.40;;
51814;SDS011;37874;53.158;6.766;2022-11-20T04:31:15;6.22;;;3.88;;
51814;SDS011;37874;53.158;6.766;2022-11-20T04:33:43;4.38;;;3.42;;
51814;SDS011;37874;53.158;6.766;2022-11-20T04:38:39;4.68;;;3.67;;
51814;SDS011;37874;53.158;6.766;2022-11-20T04:41:07;5.90;;;3.40;;
51814;SDS011;37874;53.158;6.766;2022-11-20T04:43:36;4.85;;;3.63;;
51814;SDS011;37874;53.158;6.766;2022-11-20T04:46:01;4.40;;;3.55;;
51814;SDS011;37874;53.158;6.766;2022-11-20T04:48:27;5.95;;;3.40;;
51814;SDS011;37874;53.158;6.766;2022-11-20T04:50:54;4.47;;;3.17;;
51814;SDS011;37874;53.158;6.766;2022-11-20T04:53:20;4.68;;;3.15;;
51814;SDS011;37874;53.158;6.766;2022-11-20T04:55:47;4.35;;;3.20;;
51814;SDS011;37874;53.158;6.766;2022-11-20T04:58:12;4.78;;;3.40;;
51814;SDS011;37874;53.158;6.766;2022-11-20T05:00:38;4.45;;;3.15;;
51814;SDS011;37874;53.158;6.766;2022-11-20T05:03:04;4.82;;;3.50;;
51814;SDS011;37874;53.158;6.766;2022-11-20T05:05:30;4.82;;;3.40;;
51814;SDS011;37874;53.158;6.766;2022-11-20T05:07:58;4.65;;;3.58;;
51814;SDS011;37874;53.158;6.766;2022-11-20T05:10:24;4.43;;;3.13;;
51814;SDS011;37874;53.158;6.766;2022-11-20T05:12:52;3.50;;;2.85;;
51814;SDS011;37874;53.158;6.766;2022-11-20T05:15:18;3.78;;;3.10;;
51814;SDS011;37874;53.158;6.766;2022-11-20T05:17:50;4.65;;;3.10;;
51814;SDS011;37874;53.158;6.766;2022-11-20T05:20:17;5.78;;;3.10;;
51814;SDS011;37874;53.158;6.766;2022-11-20T05:22:43;4.40;;;3.00;;
51814;SDS011;37874;53.158;6.766;2022-11-20T05:25:09;4.55;;;3.50;;
51814;SDS011;37874;53.158;6.766;2022-11-20T05:27:36;5.10;;;3.35;;
51814;SDS011;37874;53.158;6.766;2022-11-20T05:30:02;4.53;;;3.28;;
51814;SDS011;37874;53.158;6.766;2022-11-20T05:32:31;4.68;;;3.25;;
51814;SDS011;37874;53.158;6.766;2022-11-20T05:34:57;5.22;;;3.42;;
51814;SDS011;37874;53.158;6.766;2022-11-20T05:37:22;3.67;;;2.95;;
51814;SDS011;37874;53.158;6.766;2022-11-20T05:39:48;4.32;;;3.05;;
51814;SDS011;37874;53.158;6.766;2022-11-20T05:42:13;4.43;;;3.47;;
51814;SDS011;37874;53.158;6.766;2022-11-20T05:45:08;4.17;;;3.30;;
51814;SDS011;37874;53.158;6.766;2022-11-20T05:47:34;4.65;;;2.83;;
51814;SDS011;37874;53.158;6.766;2022-11-20T05:50:00;4.53;;;3.38;;
51814;SDS011;37874;53.158;6.766;2022-11-20T05:52:29;4.80;;;3.60;;
51814;SDS011;37874;53.158;6.766;2022-11-20T05:54:55;4.43;;;3.17;;
51814;SDS011;37874;53.158;6.766;2022-11-20T05:57:21;4.53;;;3.38;;
51814;SDS011;37874;53.158;6.766;2022-11-20T05:59:46;4.53;;;3.28;;
51814;SDS011;37874;53.158;6.766;2022-11-20T06:02:12;4.55;;;2.90;;
51814;SDS011;37874;53.158;6.766;2022-11-20T06:04:38;4.90;;;3.30;;
51814;SDS011;37874;53.158;6.766;2022-11-20T06:07:06;4.47;;;3.15;;
51814;SDS011;37874;53.158;6.766;2022-11-20T06:09:32;4.32;;;3.08;;
51814;SDS011;37874;53.158;6.766;2022-11-20T06:11:58;3.95;;;2.88;;
51814;SDS011;37874;53.158;6.766;2022-11-20T06:14:24;5.22;;;3.65;;
51814;SDS011;37874;53.158;6.766;2022-11-20T06:16:49;4.13;;;3.17;;
51814;SDS011;37874;53.158;6.766;2022-11-20T06:19:15;4.90;;;2.95;;
51814;SDS011;37874;53.158;6.766;2022-11-20T06:21:41;3.65;;;2.83;;
51814;SDS011;37874;53.158;6.766;2022-11-20T06:24:06;5.50;;;3.10;;
51814;SDS011;37874;53.158;6.766;2022-11-20T06:26:34;5.53;;;2.88;;
51814;SDS011;37874;53.158;6.766;2022-11-20T06:29:00;3.88;;;2.70;;
51814;SDS011;37874;53.158;6.766;2022-11-20T06:31:25;4.72;;;3.17;;
51814;SDS011;37874;53.158;6.766;2022-11-20T06:33:51;4.43;;;3.30;;
51814;SDS011;37874;53.158;6.766;2022-11-20T06:36:18;4.53;;;3.33;;
51814;SDS011;37874;53.158;6.766;2022-11-20T06:38:45;4.38;;;2.90;;
51814;SDS011;37874;53.158;6.766;2022-11-20T06:41:12;4.43;;;3.35;;
51814;SDS011;37874;53.158;6.766;2022-11-20T06:43:43;4.43;;;3.33;;
51814;SDS011;37874;53.158;6.766;2022-11-20T06:46:10;3.58;;;2.70;;
51814;SDS011;37874;53.158;6.766;2022-11-20T06:48:36;5.82;;;2.90;;
51814;SDS011;37874;53.158;6.766;2022-11-20T06:51:03;4.25;;;3.03;;
51814;SDS011;37874;53.158;6.766;2022-11-20T06:53:29;3.97;;;2.92;;
51814;SDS011;37874;53.158;6.766;2022-11-20T06:55:55;4.65;;;3.05;;
51814;SDS011;37874;53.158;6.766;2022-11-20T06:58:22;4.18;;;3.00;;
51814;SDS011;37874;53.158;6.766;2022-11-20T07:00:48;4.88;;;3.00;;
51814;SDS011;37874;53.158;6.766;2022-11-20T07:03:14;5.13;;;2.92;;
51814;SDS011;37874;53.158;6.766;2022-11-20T07:05:39;4.05;;;3.15;;
51814;SDS011;37874;53.158;6.766;2022-11-20T07:08:06;4.40;;;3.10;;
51814;SDS011;37874;53.158;6.766;2022-11-20T07:10:31;3.95;;;2.83;;
51814;SDS011;37874;53.158;6.766;2022-11-20T07:12:57;3.85;;;2.80;;
51814;SDS011;37874;53.158;6.766;2022-11-20T07:15:24;4.10;;;3.00;;
51814;SDS011;37874;53.158;6.766;2022-11-20T07:17:50;4.35;;;3.10;;
51814;SDS011;37874;53.158;6.766;2022-11-20T07:20:16;4.50;;;3.10;;
51814;SDS011;37874;53.158;6.766;2022-11-20T07:22:42;4.35;;;2.97;;
51814;SDS011;37874;53.158;6.766;2022-11-20T07:25:08;5.07;;;3.45;;
51814;SDS011;37874;53.158;6.766;2022-11-20T07:27:34;4.15;;;2.92;;
51814;SDS011;37874;53.158;6.766;2022-11-20T07:30:01;4.13;;;2.80;;
51814;SDS011;37874;53.158;6.766;2022-11-20T07:32:28;5.72;;;3.10;;
51814;SDS011;37874;53.158;6.766;2022-11-20T07:34:54;3.35;;;2.83;;
51814;SDS011;37874;53.158;6.766;2022-11-20T07:37:19;4.32;;;2.90;;
51814;SDS011;37874;53.158;6.766;2022-11-20T07:39:45;4.18;;;3.13;;
51814;SDS011;37874;53.158;6.766;2022-11-20T07:42:10;4.80;;;3.00;;
51814;SDS011;37874;53.158;6.766;2022-11-20T07:44:37;5.40;;;3.40;;
51814;SDS011;37874;53.158;6.766;2022-11-20T07:47:03;5.03;;;2.92;;
51814;SDS011;37874;53.158;6.766;2022-11-20T07:49:32;5.45;;;3.42;;
51814;SDS011;37874;53.158;6.766;2022-11-20T07:51:58;4.90;;;3.20;;
51814;SDS011;37874;53.158;6.766;2022-11-20T07:54:23;4.00;;;3.10;;
51814;SDS011;37874;53.158;6.766;2022-11-20T07:56:49;5.47;;;3.33;;
51814;SDS011;37874;53.158;6.766;2022-11-20T07:59:15;5.53;;;3.20;;
51814;SDS011;37874;53.158;6.766;2022-11-20T08:01:41;6.88;;;4.38;;
51814;SDS011;37874;53.158;6.766;2022-11-20T08:04:07;7.80;;;4.90;;
51814;SDS011;37874;53.158;6.766;2022-11-20T08:06:33;7.90;;;4.82;;
51814;SDS011;37874;53.158;6.766;2022-11-20T08:09:00;7.35;;;5.07;;
51814;SDS011;37874;53.158;6.766;2022-11-20T08:11:26;8.07;;;5.20;;
51814;SDS011;37874;53.158;6.766;2022-11-20T08:14:10;7.50;;;5.60;;
51814;SDS011;37874;53.158;6.766;2022-11-20T08:16:39;7.80;;;5.15;;
51814;SDS011;37874;53.158;6.766;2022-11-20T08:19:05;12.75;;;4.10;;
51814;SDS011;37874;53.158;6.766;2022-11-20T08:21:32;8.23;;;4.75;;
51814;SDS011;37874;53.158;6.766;2022-11-20T08:23:58;6.30;;;4.20;;
51814;SDS011;37874;53.158;6.766;2022-11-20T08:26:24;5.50;;;3.78;;
51814;SDS011;37874;53.158;6.766;2022-11-20T08:28:54;6.05;;;3.88;;
51814;SDS011;37874;53.158;6.766;2022-11-20T08:31:21;5.57;;;4.15;;
51814;SDS011;37874;53.158;6.766;2022-11-20T08:33:47;5.85;;;3.90;;
51814;SDS011;37874;53.158;6.766;2022-11-20T08:36:13;7.40;;;3.78;;
51814;SDS011;37874;53.158;6.766;2022-11-20T08:38:39;6.50;;;3.35;;
51814;SDS011;37874;53.158;6.766;2022-11-20T08:41:04;6.53;;;3.90;;
51814;SDS011;37874;53.158;6.766;2022-11-20T08:43:55;6.30;;;3.60;;
51814;SDS011;37874;53.158;6.766;2022-11-20T08:46:21;4.95;;;3.33;;
51814;SDS011;37874;53.158;6.766;2022-11-20T08:48:51;7.13;;;3.75;;
51814;SDS011;37874;53.158;6.766;2022-11-20T08:51:18;7.68;;;3.92;;
51814;SDS011;37874;53.158;6.766;2022-11-20T08:53:44;5.63;;;3.95;;
51814;SDS011;37874;53.158;6.766;2022-11-20T08:56:10;7.40;;;4.00;;
51814;SDS011;37874;53.158;6.766;2022-11-20T08:58:37;7.40;;;4.60;;
51814;SDS011;37874;53.158;6.766;2022-11-20T09:01:03;7.28;;;4.00;;
51814;SDS011;37874;53.158;6.766;2022-11-20T09:03:29;7.93;;;4.53;;
51814;SDS011;37874;53.158;6.766;2022-11-20T09:06:01;8.10;;;4.22;;
51814;SDS011;37874;53.158;6.766;2022-11-20T09:08:28;7.35;;;4.38;;
51814;SDS011;37874;53.158;6.766;2022-11-20T09:10:55;5.72;;;3.95;;
51814;SDS011;37874;53.158;6.766;2022-11-20T09:13:22;6.40;;;4.30;;
51814;SDS011;37874;53.158;6.766;2022-11-20T09:15:52;7.03;;;3.40;;
51814;SDS011;37874;53.158;6.766;2022-11-20T09:18:23;6.85;;;4.18;;
51814;SDS011;37874;53.158;6.766;2022-11-20T09:20:49;5.93;;;3.63;;
51814;SDS011;37874;53.158;6.766;2022-11-20T09:23:15;5.10;;;3.35;;
51814;SDS011;37874;53.158;6.766;2022-11-20T09:25:41;6.13;;;3.50;;
51814;SDS011;37874;53.158;6.766;2022-11-20T09:28:08;5.15;;;3.33;;
51814;SDS011;37874;53.158;6.766;2022-11-20T09:30:33;5.90;;;3.53;;
51814;SDS011;37874;53.158;6.766;2022-11-20T09:32:59;5.00;;;3.22;;
51814;SDS011;37874;53.158;6.766;2022-11-20T09:35:25;7.15;;;3.70;;
51814;SDS011;37874;53.158;6.766;2022-11-20T09:37:50;5.13;;;3.70;;
51814;SDS011;37874;53.158;6.766;2022-11-20T09:40:23;5.25;;;3.17;;
51814;SDS011;37874;53.158;6.766;2022-11-20T09:56:16;5.97;;;4.20;;
51814;SDS011;37874;53.158;6.766;2022-11-20T09:58:44;8.27;;;4.75;;
51814;SDS011;37874;53.158;6.766;2022-11-20T10:01:17;6.68;;;4.57;;
51814;SDS011;37874;53.158;6.766;2022-11-20T10:06:15;7.65;;;5.28;;
51814;SDS011;37874;53.158;6.766;2022-11-20T10:08:49;6.40;;;4.75;;
51814;SDS011;37874;53.158;6.766;2022-11-20T10:14:16;7.47;;;4.18;;
51814;SDS011;37874;53.158;6.766;2022-11-20T10:27:44;3.95;;;3.00;;
51814;SDS011;37874;53.158;6.766;2022-11-20T10:30:13;5.28;;;3.60;;
51814;SDS011;37874;53.158;6.766;2022-11-20T10:32:42;4.35;;;3.13;;
51814;SDS011;37874;53.158;6.766;2022-11-20T10:35:54;5.68;;;3.70;;
51814;SDS011;37874;53.158;6.766;2022-11-20T10:38:12;6.05;;;3.53;;
51814;SDS011;37874;53.158;6.766;2022-11-20T10:43:45;7.53;;;4.20;;
51814;SDS011;37874;53.158;6.766;2022-11-20T10:46:17;6.03;;;4.03;;
51814;SDS011;37874;53.158;6.766;2022-11-20T10:48:47;6.20;;;3.95;;
51814;SDS011;37874;53.158;6.766;2022-11-20T10:57:10;6.30;;;4.60;;
51814;SDS011;37874;53.158;6.766;2022-11-20T10:59:52;4.78;;;3.65;;
51814;SDS011;37874;53.158;6.766;2022-11-20T11:02:31;5.53;;;3.85;;
51814;SDS011;37874;53.158;6.766;2022-11-20T11:05:00;5.68;;;4.00;;
51814;SDS011;37874;53.158;6.766;2022-11-20T11:07:39;5.97;;;4.20;;
51814;SDS011;37874;53.158;6.766;2022-11-20T11:10:28;6.82;;;3.50;;
51814;SDS011;37874;53.158;6.766;2022-11-20T11:12:57;4.63;;;3.22;;
51814;SDS011;37874;53.158;6.766;2022-11-20T11:15:30;6.10;;;3.10;;
51814;SDS011;37874;53.158;6.766;2022-11-20T11:18:04;4.60;;;3.17;;
51814;SDS011;37874;53.158;6.766;2022-11-20T11:20:30;5.32;;;3.60;;
51814;SDS011;37874;53.158;6.766;2022-11-20T11:22:57;5.22;;;3.45;;
51814;SDS011;37874;53.158;6.766;2022-11-20T11:27:53;4.30;;;3.05;;
51814;SDS011;37874;53.158;6.766;2022-11-20T11:30:21;4.30;;;3.10;;
51814;SDS011;37874;53.158;6.766;2022-11-20T11:32:48;4.55;;;3.08;;
51814;SDS011;37874;53.158;6.766;2022-11-20T11:35:24;4.75;;;3.03;;
51814;SDS011;37874;53.158;6.766;2022-11-20T11:37:53;3.80;;;2.70;;
51814;SDS011;37874;53.158;6.766;2022-11-20T11:40:26;4.10;;;3.00;;
51814;SDS011;37874;53.158;6.766;2022-11-20T11:42:57;6.95;;;2.85;;
51814;SDS011;37874;53.158;6.766;2022-11-20T11:45:25;9.05;;;3.00;;
51814;SDS011;37874;53.158;6.766;2022-11-20T11:47:52;4.38;;;2.70;;
51814;SDS011;37874;53.158;6.766;2022-11-20T11:50:21;4.22;;;2.80;;
51814;SDS011;37874;53.158;6.766;2022-11-20T11:55:36;4.35;;;3.10;;
51814;SDS011;37874;53.158;6.766;2022-11-20T12:04:00;4.90;;;2.58;;
51814;SDS011;37874;53.158;6.766;2022-11-20T12:06:41;4.28;;;2.47;;
51814;SDS011;37874;53.158;6.766;2022-11-20T12:09:10;5.00;;;2.75;;
51814;SDS011;37874;53.158;6.766;2022-11-20T12:11:38;4.10;;;2.53;;
51814;SDS011;37874;53.158;6.766;2022-11-20T12:16:55;4.43;;;2.88;;
51814;SDS011;37874;53.158;6.766;2022-11-20T12:19:22;3.60;;;2.50;;
51814;SDS011;37874;53.158;6.766;2022-11-20T12:24:58;4.45;;;2.45;;
51814;SDS011;37874;53.158;6.766;2022-11-20T12:30:29;3.92;;;2.85;;
51814;SDS011;37874;53.158;6.766;2022-11-20T12:35:35;4.05;;;2.47;;
51814;SDS011;37874;53.158;6.766;2022-11-20T12:44:08;3.70;;;2.50;;
51814;SDS011;37874;53.158;6.766;2022-11-20T12:47:15;4.65;;;2.00;;
51814;SDS011;37874;53.158;6.766;2022-11-20T12:49:48;4.28;;;2.20;;
51814;SDS011;37874;53.158;6.766;2022-11-20T12:58:23;3.67;;;2.28;;
51814;SDS011;37874;53.158;6.766;2022-11-20T13:00:58;2.80;;;1.98;;
51814;SDS011;37874;53.158;6.766;2022-11-20T13:03:36;3.40;;;2.00;;
51814;SDS011;37874;53.158;6.766;2022-11-20T13:08:55;3.47;;;2.10;;
51814;SDS011;37874;53.158;6.766;2022-11-20T13:11:30;4.90;;;1.90;;
51814;SDS011;37874;53.158;6.766;2022-11-20T13:17:06;3.10;;;2.20;;
51814;SDS011;37874;53.158;6.766;2022-11-20T13:20:12;3.15;;;2.20;;
51814;SDS011;37874;53.158;6.766;2022-11-20T13:25:21;3.53;;;2.05;;
51814;SDS011;37874;53.158;6.766;2022-11-20T13:27:50;3.38;;;2.00;;
51814;SDS011;37874;53.158;6.766;2022-11-20T13:30:17;3.17;;;2.03;;
51814;SDS011;37874;53.158;6.766;2022-11-20T13:32:52;3.28;;;1.80;;
51814;SDS011;37874;53.158;6.766;2022-11-20T13:38:07;5.00;;;2.10;;
51814;SDS011;37874;53.158;6.766;2022-11-20T13:40:56;4.43;;;2.10;;
51814;SDS011;37874;53.158;6.766;2022-11-20T13:46:08;4.55;;;2.00;;
51814;SDS011;37874;53.158;6.766;2022-11-20T13:48:41;2.95;;;1.95;;
51814;SDS011;37874;53.158;6.766;2022-11-20T13:56:34;2.90;;;2.00;;
51814;SDS011;37874;53.158;6.766;2022-11-20T13:59:27;3.55;;;2.15;;
51814;SDS011;37874;53.158;6.766;2022-11-20T14:02:18;2.85;;;1.95;;
51814;SDS011;37874;53.158;6.766;2022-11-20T14:04:49;3.78;;;2.38;;
51814;SDS011;37874;53.158;6.766;2022-11-20T14:07:18;3.78;;;2.10;;
51814;SDS011;37874;53.158;6.766;2022-11-20T14:09:56;3.42;;;2.17;;
51814;SDS011;37874;53.158;6.766;2022-11-20T14:12:30;3.20;;;2.08;;
51814;SDS011;37874;53.158;6.766;2022-11-20T14:14:57;4.65;;;2.10;;
51814;SDS011;37874;53.158;6.766;2022-11-20T14:17:28;3.63;;;1.95;;
51814;SDS011;37874;53.158;6.766;2022-11-20T14:20:06;3.17;;;2.03;;
51814;SDS011;37874;53.158;6.766;2022-11-20T14:22:39;3.67;;;1.85;;
51814;SDS011;37874;53.158;6.766;2022-11-20T14:27:39;4.50;;;2.25;;
51814;SDS011;37874;53.158;6.766;2022-11-20T14:30:26;3.05;;;2.03;;
51814;SDS011;37874;53.158;6.766;2022-11-20T14:32:55;4.95;;;2.63;;
51814;SDS011;37874;53.158;6.766;2022-11-20T14:35:26;3.92;;;2.70;;
51814;SDS011;37874;53.158;6.766;2022-11-20T14:37:54;4.03;;;2.95;;
51814;SDS011;37874;53.158;6.766;2022-11-20T14:40:25;5.28;;;3.30;;
51814;SDS011;37874;53.158;6.766;2022-11-20T14:43:00;3.63;;;2.70;;
51814;SDS011;37874;53.158;6.766;2022-11-20T14:45:26;3.60;;;2.65;;
51814;SDS011;37874;53.158;6.766;2022-11-20T14:47:53;5.63;;;2.80;;
51814;SDS011;37874;53.158;6.766;2022-11-20T14:50:28;3.92;;;2.50;;
51814;SDS011;37874;53.158;6.766;2022-11-20T14:53:00;6.38;;;2.63;;
51814;SDS011;37874;53.158;6.766;2022-11-20T14:58:05;4.63;;;2.70;;
51814;SDS011;37874;53.158;6.766;2022-11-20T15:00:52;3.50;;;2.70;;
51814;SDS011;37874;53.158;6.766;2022-11-20T15:03:33;3.40;;;2.55;;
51814;SDS011;37874;53.158;6.766;2022-11-20T15:06:00;5.13;;;2.63;;
51814;SDS011;37874;53.158;6.766;2022-11-20T15:08:26;4.82;;;2.72;;
51814;SDS011;37874;53.158;6.766;2022-11-20T15:10:53;4.55;;;2.80;;
51814;SDS011;37874;53.158;6.766;2022-11-20T15:13:26;3.58;;;2.58;;
51814;SDS011;37874;53.158;6.766;2022-11-20T15:15:57;4.38;;;2.85;;
51814;SDS011;37874;53.158;6.766;2022-11-20T15:18:31;4.70;;;2.50;;
51814;SDS011;37874;53.158;6.766;2022-11-20T15:21:02;6.55;;;3.28;;
51814;SDS011;37874;53.158;6.766;2022-11-20T15:23:34;5.95;;;3.38;;
51814;SDS011;37874;53.158;6.766;2022-11-20T15:26:00;3.83;;;2.60;;
51814;SDS011;37874;53.158;6.766;2022-11-20T15:28:28;3.88;;;3.00;;
51814;SDS011;37874;53.158;6.766;2022-11-20T15:31:02;6.90;;;3.72;;
51814;SDS011;37874;53.158;6.766;2022-11-20T15:33:28;5.07;;;2.80;;
51814;SDS011;37874;53.158;6.766;2022-11-20T15:35:54;5.05;;;3.30;;
51814;SDS011;37874;53.158;6.766;2022-11-20T15:38:20;7.00;;;3.58;;
51814;SDS011;37874;53.158;6.766;2022-11-20T15:40:45;6.18;;;3.30;;
51814;SDS011;37874;53.158;6.766;2022-11-20T15:43:11;6.25;;;3.30;;
51814;SDS011;37874;53.158;6.766;2022-11-20T15:45:47;6.80;;;4.38;;
51814;SDS011;37874;53.158;6.766;2022-11-20T15:48:59;7.28;;;3.97;;
51814;SDS011;37874;53.158;6.766;2022-11-20T15:53:34;7.10;;;4.00;;
51814;SDS011;37874;53.158;6.766;2022-11-20T15:56:01;6.07;;;4.15;;
51814;SDS011;37874;53.158;6.766;2022-11-20T15:58:27;9.43;;;5.10;;
51814;SDS011;37874;53.158;6.766;2022-11-20T16:00:52;9.30;;;5.93;;
51814;SDS011;37874;53.158;6.766;2022-11-20T16:03:18;11.30;;;6.05;;
51814;SDS011;37874;53.158;6.766;2022-11-20T16:05:44;11.57;;;7.40;;
51814;SDS011;37874;53.158;6.766;2022-11-20T16:08:10;10.27;;;6.35;;
51814;SDS011;37874;53.158;6.766;2022-11-20T16:10:36;11.07;;;6.30;;
51814;SDS011;37874;53.158;6.766;2022-11-20T16:13:02;13.30;;;6.22;;
51814;SDS011;37874;53.158;6.766;2022-11-20T16:15:50;16.85;;;6.15;;
51814;SDS011;37874;53.158;6.766;2022-11-20T16:18:18;11.65;;;5.93;;
51814;SDS011;37874;53.158;6.766;2022-11-20T16:20:47;15.93;;;5.72;;
51814;SDS011;37874;53.158;6.766;2022-11-20T16:23:17;9.48;;;5.40;;
51814;SDS011;37874;53.158;6.766;2022-11-20T16:25:43;11.07;;;5.53;;
51814;SDS011;37874;53.158;6.766;2022-11-20T16:28:09;11.35;;;6.60;;
51814;SDS011;37874;53.158;6.766;2022-11-20T16:30:35;9.65;;;5.80;;
51814;SDS011;37874;53.158;6.766;2022-11-20T16:33:01;11.32;;;6.30;;
51814;SDS011;37874;53.158;6.766;2022-11-20T16:35:28;11.23;;;6.35;;
51814;SDS011;37874;53.158;6.766;2022-11-20T16:37:55;10.57;;;6.13;;
51814;SDS011;37874;53.158;6.766;2022-11-20T16:40:23;11.65;;;6.60;;
51814;SDS011;37874;53.158;6.766;2022-11-20T16:42:57;11.18;;;6.13;;
51814;SDS011;37874;53.158;6.766;2022-11-20T16:45:33;11.63;;;5.95;;
51814;SDS011;37874;53.158;6.766;2022-11-20T16:47:59;12.90;;;6.82;;
51814;SDS011;37874;53.158;6.766;2022-11-20T16:50:24;12.70;;;6.88;;